EHRDEHBK

Guest
Details From EHRD - Rotterdam The Hague
To EHBK - Maastricht
Flight Number -
Tags generated
Created
Modified
Stats Distance 80 nm / 148 km
Max Altitude 4,300 ft / 1,311 m
Waypoints 3
Social Downloads 3
Likes 0
Share VATSIM

Download

Looking for another format? Having issues loading an existing format? Contact us
Advertisement - Login to hide

Notes

Basic altitude profile: - Ascent Rate: 2500ft/min - Ascent Speed: 250kts - Cruise Altitude: 35000ft - Cruise Speed: 420kts - Descent Rate: 1500ft/min - Descent Speed: 250kts Options: - Use NATs: yes - Use PACOTS: yes - Use low airways: yes - Use high airways: yes

Route

EHRD BROGY EHBK

ID Type Via Altitude Latitude Longitude Leg Dist Tot Dist Heading (true) Name
O EHRD APT - 0 ft / 0 m 51.95747˚ 4.44166˚ - 0 nm - Rotterdam The Hague
BROGY FIX - 4,300 ft / 1,311 m 51.18252˚ 5.44876˚ 59 nm 59 nm 141° / 141° -
O EHBK APT - 0 ft / 0 m 50.91131˚ 5.76964˚ 20 nm 80 nm 143° / 143° Maastricht

Altitude Profile

Advertisement - Login to hide

EHRD

Details ICAO EHRD (RTM)
Name Rotterdam The Hague
Region Netherlands
Timezone Europe/Amsterdam (UTC+2.0)
Stats Elevation -15 ft / -5 m (AMSL)
Location 51.957468° 4.441662°
Runways 1
Magnetic Variation 1.111° E

METAR

EHRD 261025Z AUTO 09010KT 050V130 9999 NSC 26/16 Q1019 NOSIG

Decode

TAF

TAF EHRD 260415Z 2606/2712 05005KT CAVOK BECMG 2608/2611 08010KT

Decode

Departure Runways

ID Width Length Bearing (true) Bearing (mag) Surface Threshold Offset Overrun Length
06 148 ft / 45 m 7,201 ft / 2,195 m 56.93° 55.82° Asphalt 656 ft / 200 m 0 ft / 0 m
24 148 ft / 45 m 7,201 ft / 2,195 m 236.95° 235.84° Asphalt 656 ft / 200 m 0 ft / 0 m

EHBK

Details ICAO EHBK (MST)
Name Maastricht
Region Netherlands
Timezone Europe/Amsterdam (UTC+2.0)
Stats Elevation 375 ft / 114 m (AMSL)
Location 50.911305° 5.769639°
Runways 1
Magnetic Variation 1.577° E

METAR

EHBK 261025Z AUTO 09009KT 060V130 9999 NSC 26/17 Q1019 NOSIG

Decode

TAF

TAF EHBK 260434Z 2606/2712 09008KT CAVOK PROB30 TEMPO 2708/2712 5000 SHRA SCT060CB

Decode

Destination Runways

ID Width Length Bearing (true) Bearing (mag) Surface Threshold Offset Overrun Length
03 148 ft / 45 m 8,200 ft / 2,499 m 32.55° 30.97° Asphalt 820 ft / 250 m 0 ft / 0 m
21 148 ft / 45 m 8,200 ft / 2,499 m 212.56° 210.98° Asphalt 820 ft / 250 m 0 ft / 0 m

Approach Navaids

Runway Type Ident Frequency Range Bearing (true) Bearing (mag) Slope Elevation
03 Localiser BKZ 111.55 MHz 18 nm / 33 km 32.57° 30.99° - 375 ft / 114 m (AMSL)
03 Glidescope BKZ 111.55 MHz 15 nm / 28 km 32.57° 30.99° 3.00° 375 ft / 114 m (AMSL)
03 DME BKZ 111.55 MHz 18 nm / 33 km - - - 375 ft / 114 m (AMSL)
21 Localiser BKN 111.55 MHz 18 nm / 33 km 212.55° 210.97° - 375 ft / 114 m (AMSL)
21 Glidescope BKN 111.55 MHz 15 nm / 28 km 212.55° 210.97° 3.00° 375 ft / 114 m (AMSL)
21 DME BKN 111.55 MHz 18 nm / 33 km - - - 375 ft / 114 m (AMSL)

Popular Alternatives